Bellevue, Nebraska
Current Conditions -  °F | °C
As of 2:58 AM on Monday 24 Nov 2014 (Local Time) from KOFF Reporting Station
Overcast Overcast  
Wind Chill: 21°   Ceiling: 3000
Heat Index: 31°   Visibility: 10mi
Dew Point: 20°   Wind: 15mph
Humidity: 62%   Direction: 310°NW
Pressure: 29.55"   Gusts: 25mph
Location:  41.14°N, 95.89°W
Report Text: KOFF 240858Z AUTO 31013G22KT 10SM BKN030 OVC060 00/M07 A2955 RMK AO2 PK WND 33028/23 SLP017 T10041068 52010
Loading
Personal Weather Stations






























Interactive Weather Map New forecast layout! Learn more

10-Day Weather Forecast

Advertisements
Track Severe Weather on mobile